sensor_id;sensor_type;location;lat;lon;timestamp;pressure;altitude;pressure_sealevel;temperature;humidity
10840;BME280;5473;42.706;23.328;2023-02-18T00:00:17;27653.81;;;-142.93;100.00
10840;BME280;5473;42.706;23.328;2023-02-18T00:02:45;27747.06;;;-142.93;100.00
10840;BME280;5473;42.706;23.328;2023-02-18T00:05:12;27602.22;;;-142.93;100.00
10840;BME280;5473;42.706;23.328;2023-02-18T00:07:40;27118.16;;;-142.93;100.00
10840;BME280;5473;42.706;23.328;2023-02-18T00:10:10;26558.81;;;-142.93;100.00
10840;BME280;5473;42.706;23.328;2023-02-18T00:12:38;26304.97;;;-142.93;100.00
10840;BME280;5473;42.706;23.328;2023-02-18T00:15:07;25543.50;;;-142.93;100.00
10840;BME280;5473;42.706;23.328;2023-02-18T00:17:35;25289.75;;;-142.93;100.00
10840;BME280;5473;42.706;23.328;2023-02-18T00:20:02;24782.25;;;-142.93;100.00
10840;BME280;5473;42.706;23.328;2023-02-18T00:22:29;23767.47;;;-142.93;100.00
10840;BME280;5473;42.706;23.328;2023-02-18T00:24:56;23767.47;;;-142.93;100.00
10840;BME280;5473;42.706;23.328;2023-02-18T00:27:23;22753.00;;;-142.93;100.00
10840;BME280;5473;42.706;23.328;2023-02-18T00:29:49;22499.44;;;-142.93;100.00
10840;BME280;5473;42.706;23.328;2023-02-18T00:32:18;21738.84;;;-142.93;100.00
10840;BME280;5473;42.706;23.328;2023-02-18T00:34:44;21231.91;;;-142.93;100.00
10840;BME280;5473;42.706;23.328;2023-02-18T00:37:11;21231.91;;;-142.93;100.00
10840;BME280;5473;42.706;23.328;2023-02-18T00:39:38;21485.38;;;-142.93;100.00
10840;BME280;5473;42.706;23.328;2023-02-18T00:42:05;21231.91;;;-142.93;100.00
10840;BME280;5473;42.706;23.328;2023-02-18T00:44:33;20725.03;;;-142.93;100.00
10840;BME280;5473;42.706;23.328;2023-02-18T00:46:59;20725.03;;;-142.93;100.00
10840;BME280;5473;42.706;23.328;2023-02-18T00:49:27;20471.59;;;-142.93;100.00
10840;BME280;5473;42.706;23.328;2023-02-18T00:51:54;20725.03;;;-142.93;100.00
10840;BME280;5473;42.706;23.328;2023-02-18T00:54:21;20218.22;;;-142.93;100.00
10840;BME280;5473;42.706;23.328;2023-02-18T00:56:48;19964.84;;;-142.93;100.00
10840;BME280;5473;42.706;23.328;2023-02-18T00:59:14;20725.03;;;-142.93;100.00
10840;BME280;5473;42.706;23.328;2023-02-18T01:01:41;20218.22;;;-142.93;100.00
10840;BME280;5473;42.706;23.328;2023-02-18T01:04:08;20978.44;;;-142.93;100.00
10840;BME280;5473;42.706;23.328;2023-02-18T01:06:36;21231.91;;;-142.93;100.00
10840;BME280;5473;42.706;23.328;2023-02-18T01:09:03;20978.44;;;-142.93;100.00
10840;BME280;5473;42.706;23.328;2023-02-18T01:11:31;20725.03;;;-142.93;100.00
10840;BME280;5473;42.706;23.328;2023-02-18T01:13:58;19711.50;;;-142.93;100.00
10840;BME280;5473;42.706;23.328;2023-02-18T01:16:24;19964.84;;;-142.93;100.00
10840;BME280;5473;42.706;23.328;2023-02-18T01:18:51;20725.03;;;-142.93;100.00
10840;BME280;5473;42.706;23.328;2023-02-18T01:21:18;20978.44;;;-142.93;100.00
10840;BME280;5473;42.706;23.328;2023-02-18T01:23:46;21485.38;;;-142.93;100.00
10840;BME280;5473;42.706;23.328;2023-02-18T01:26:13;19964.84;;;-142.93;100.00
10840;BME280;5473;42.706;23.328;2023-02-18T01:28:40;18951.53;;;-142.93;100.00
10840;BME280;5473;42.706;23.328;2023-02-18T01:31:09;18698.25;;;-142.93;100.00
10840;BME280;5473;42.706;23.328;2023-02-18T01:33:36;17938.56;;;-142.93;100.00
10840;BME280;5473;42.706;23.328;2023-02-18T01:36:04;16925.88;;;-142.93;100.00
10840;BME280;5473;42.706;23.328;2023-02-18T01:38:31;14648.47;;;-142.93;100.00
10840;BME280;5473;42.706;23.328;2023-02-18T01:40:59;14648.47;;;-142.93;100.00
10840;BME280;5473;42.706;23.328;2023-02-18T01:43:26;13889.69;;;-142.93;100.00
10840;BME280;5473;42.706;23.328;2023-02-18T01:45:59;13636.81;;;-142.93;100.00
10840;BME280;5473;42.706;23.328;2023-02-18T01:48:31;13636.81;;;-142.93;100.00
10840;BME280;5473;42.706;23.328;2023-02-18T01:51:02;13131.09;;;-142.93;100.00
10840;BME280;5473;42.706;23.328;2023-02-18T01:53:35;12625.44;;;-142.93;100.00
10840;BME280;5473;42.706;23.328;2023-02-18T01:56:07;12372.66;;;-142.93;100.00
10840;BME280;5473;42.706;23.328;2023-02-18T01:58:37;11867.13;;;-142.93;100.00
10840;BME280;5473;42.706;23.328;2023-02-18T02:01:04;11867.13;;;-142.93;100.00
10840;BME280;5473;42.706;23.328;2023-02-18T02:03:31;11108.97;;;-142.93;100.00
10840;BME280;5473;42.706;23.328;2023-02-18T02:05:58;10856.28;;;-142.93;100.00
10840;BME280;5473;42.706;23.328;2023-02-18T02:08:25;10098.38;;;-142.93;100.00
10840;BME280;5473;42.706;23.328;2023-02-18T02:11:14;9340.63;;;-142.93;100.00
10840;BME280;5473;42.706;23.328;2023-02-18T02:13:58;8835.56;;;-142.93;100.00
10840;BME280;5473;42.706;23.328;2023-02-18T02:16:35;8078.13;;;-142.93;100.00
10840;BME280;5473;42.706;23.328;2023-02-18T02:19:23;7825.69;;;-142.93;100.00
10840;BME280;5473;42.706;23.328;2023-02-18T02:22:17;7573.25;;;-142.93;100.00
10840;BME280;5473;42.706;23.328;2023-02-18T02:25:15;7320.84;;;-142.93;100.00
10840;BME280;5473;42.706;23.328;2023-02-18T02:28:07;6563.75;;;-142.93;100.00
10840;BME280;5473;42.706;23.328;2023-02-18T02:30:57;6563.75;;;-142.93;100.00
10840;BME280;5473;42.706;23.328;2023-02-18T02:36:40;5806.81;;;-142.93;100.00
10840;BME280;5473;42.706;23.328;2023-02-18T02:39:16;5806.81;;;-142.93;100.00
10840;BME280;5473;42.706;23.328;2023-02-18T02:41:51;5554.56;;;-142.93;100.00
10840;BME280;5473;42.706;23.328;2023-02-18T02:44:31;5554.56;;;-142.93;100.00
10840;BME280;5473;42.706;23.328;2023-02-18T02:47:07;5302.28;;;-142.93;100.00
10840;BME280;5473;42.706;23.328;2023-02-18T02:49:43;5554.56;;;-142.93;100.00
10840;BME280;5473;42.706;23.328;2023-02-18T02:52:21;5302.28;;;-142.93;100.00
10840;BME280;5473;42.706;23.328;2023-02-18T02:54:49;4797.84;;;-142.93;100.00
10840;BME280;5473;42.706;23.328;2023-02-18T02:57:46;5050.06;;;-142.93;100.00
10840;BME280;5473;42.706;23.328;2023-02-18T03:00:15;5302.28;;;-142.93;100.00
10840;BME280;5473;42.706;23.328;2023-02-18T03:02:57;5806.81;;;-142.93;100.00
10840;BME280;5473;42.706;23.328;2023-02-18T03:05:34;6816.09;;;-142.93;100.00
10840;BME280;5473;42.706;23.328;2023-02-18T03:08:15;7573.25;;;-142.93;100.00
10840;BME280;5473;42.706;23.328;2023-02-18T03:10:53;8330.59;;;-142.93;100.00
10840;BME280;5473;42.706;23.328;2023-02-18T03:13:33;7825.69;;;-142.93;100.00
10840;BME280;5473;42.706;23.328;2023-02-18T03:16:11;7320.84;;;-142.93;100.00
10840;BME280;5473;42.706;23.328;2023-02-18T03:18:43;8330.59;;;-142.93;100.00
10840;BME280;5473;42.706;23.328;2023-02-18T03:21:14;9845.78;;;-142.93;100.00
10840;BME280;5473;42.706;23.328;2023-02-18T03:23:49;10351.00;;;-142.93;100.00
10840;BME280;5473;42.706;23.328;2023-02-18T03:26:20;9845.78;;;-142.93;100.00
10840;BME280;5473;42.706;23.328;2023-02-18T03:28:48;9340.63;;;-142.93;100.00
10840;BME280;5473;42.706;23.328;2023-02-18T03:31:19;8583.06;;;-142.93;100.00
10840;BME280;5473;42.706;23.328;2023-02-18T03:33:49;7320.84;;;-142.93;100.00
10840;BME280;5473;42.706;23.328;2023-02-18T03:36:19;6816.09;;;-142.93;100.00
10840;BME280;5473;42.706;23.328;2023-02-18T03:38:53;6311.41;;;-142.93;100.00
10840;BME280;5473;42.706;23.328;2023-02-18T03:41:21;5806.81;;;-142.93;100.00
10840;BME280;5473;42.706;23.328;2023-02-18T03:43:49;5554.56;;;-142.93;100.00
10840;BME280;5473;42.706;23.328;2023-02-18T03:46:16;5050.06;;;-142.93;100.00
10840;BME280;5473;42.706;23.328;2023-02-18T03:48:43;4545.66;;;-142.93;100.00
10840;BME280;5473;42.706;23.328;2023-02-18T03:51:09;3537.09;;;-142.93;100.00
10840;BME280;5473;42.706;23.328;2023-02-18T03:53:36;2024.78;;;-142.93;100.00
10840;BME280;5473;42.706;23.328;2023-02-18T03:56:05;1268.91;;;-142.93;100.00
10840;BME280;5473;42.706;23.328;2023-02-18T03:58:32;261.34;;;-142.93;100.00
10840;BME280;5473;42.706;23.328;2023-02-18T04:00:59;-242.34;;;-142.93;100.00
10840;BME280;5473;42.706;23.328;2023-02-18T04:03:26;-494.16;;;-142.93;100.00
10840;BME280;5473;42.706;23.328;2023-02-18T04:05:52;-997.69;;;-142.93;100.00
10840;BME280;5473;42.706;23.328;2023-02-18T04:08:19;-1501.19;;;-142.93;100.00
10840;BME280;5473;42.706;23.328;2023-02-18T04:10:46;-1752.88;;;-142.93;100.00
10840;BME280;5473;42.706;23.328;2023-02-18T04:13:14;-1752.88;;;-142.93;100.00
10840;BME280;5473;42.706;23.328;2023-02-18T04:15:42;-1752.88;;;-142.93;100.00
10840;BME280;5473;42.706;23.328;2023-02-18T04:18:09;-1249.44;;;-142.93;100.00
10840;BME280;5473;42.706;23.328;2023-02-18T04:20:36;-494.16;;;-142.93;100.00
10840;BME280;5473;42.706;23.328;2023-02-18T04:23:03;-242.34;;;-142.93;100.00
10840;BME280;5473;42.706;23.328;2023-02-18T04:25:30;-242.34;;;-142.93;100.00
10840;BME280;5473;42.706;23.328;2023-02-18T04:27:56;9.50;;;-142.93;100.00
10840;BME280;5473;42.706;23.328;2023-02-18T04:30:25;513.19;;;-142.93;100.00
10840;BME280;5473;42.706;23.328;2023-02-18T04:32:52;1016.97;;;-142.93;100.00
10840;BME280;5473;42.706;23.328;2023-02-18T04:35:18;1520.84;;;-142.93;100.00
10840;BME280;5473;42.706;23.328;2023-02-18T04:37:45;1772.81;;;-142.93;100.00
10840;BME280;5473;42.706;23.328;2023-02-18T04:40:12;2276.78;;;-142.93;100.00
10840;BME280;5473;42.706;23.328;2023-02-18T04:42:39;2528.81;;;-142.93;100.00
10840;BME280;5473;42.706;23.328;2023-02-18T04:45:06;2276.78;;;-142.93;100.00
10840;BME280;5473;42.706;23.328;2023-02-18T04:47:35;2528.81;;;-142.93;100.00
10840;BME280;5473;42.706;23.328;2023-02-18T04:50:02;3032.91;;;-142.93;100.00
10840;BME280;5473;42.706;23.328;2023-02-18T04:52:28;3284.97;;;-142.93;100.00
10840;BME280;5473;42.706;23.328;2023-02-18T04:54:55;3789.19;;;-142.93;100.00
10840;BME280;5473;42.706;23.328;2023-02-18T04:57:22;3789.19;;;-142.93;100.00
10840;BME280;5473;42.706;23.328;2023-02-18T04:59:49;3789.19;;;-142.93;100.00
10840;BME280;5473;42.706;23.328;2023-02-18T05:02:15;3789.19;;;-142.93;100.00
10840;BME280;5473;42.706;23.328;2023-02-18T05:04:43;3537.09;;;-142.93;100.00
10840;BME280;5473;42.706;23.328;2023-02-18T05:07:10;3789.19;;;-142.93;100.00
10840;BME280;5473;42.706;23.328;2023-02-18T05:09:37;3789.19;;;-142.93;100.00
10840;BME280;5473;42.706;23.328;2023-02-18T05:12:05;3789.19;;;-142.93;100.00
10840;BME280;5473;42.706;23.328;2023-02-18T05:14:32;3789.19;;;-142.93;100.00
10840;BME280;5473;42.706;23.328;2023-02-18T05:16:59;3789.19;;;-142.93;100.00
10840;BME280;5473;42.706;23.328;2023-02-18T05:19:25;3537.09;;;-142.93;100.00
10840;BME280;5473;42.706;23.328;2023-02-18T05:21:54;3284.97;;;-142.93;100.00
10840;BME280;5473;42.706;23.328;2023-02-18T05:24:20;3032.91;;;-142.93;100.00
10840;BME280;5473;42.706;23.328;2023-02-18T05:26:47;2780.84;;;-142.93;100.00
10840;BME280;5473;42.706;23.328;2023-02-18T05:29:14;2528.81;;;-142.93;100.00
10840;BME280;5473;42.706;23.328;2023-02-18T05:31:41;3032.91;;;-142.93;100.00
10840;BME280;5473;42.706;23.328;2023-02-18T05:34:08;3537.09;;;-142.93;100.00
10840;BME280;5473;42.706;23.328;2023-02-18T05:36:34;3537.09;;;-142.93;100.00
10840;BME280;5473;42.706;23.328;2023-02-18T05:39:03;3789.19;;;-142.93;100.00
10840;BME280;5473;42.706;23.328;2023-02-18T05:41:29;3789.19;;;-142.93;100.00
10840;BME280;5473;42.706;23.328;2023-02-18T05:43:56;5050.06;;;-142.93;100.00
10840;BME280;5473;42.706;23.328;2023-02-18T05:46:40;5554.56;;;-142.93;100.00
10840;BME280;5473;42.706;23.328;2023-02-18T05:49:07;6059.09;;;-142.93;100.00
10840;BME280;5473;42.706;23.328;2023-02-18T05:51:34;6563.75;;;-142.93;100.00
10840;BME280;5473;42.706;23.328;2023-02-18T05:54:00;7573.25;;;-142.93;100.00
10840;BME280;5473;42.706;23.328;2023-02-18T05:56:28;8330.59;;;-142.93;100.00
10840;BME280;5473;42.706;23.328;2023-02-18T05:58:55;9340.63;;;-142.93;100.00
10840;BME280;5473;42.706;23.328;2023-02-18T06:01:22;10351.00;;;-142.93;100.00
10840;BME280;5473;42.706;23.328;2023-02-18T06:03:49;10603.63;;;-142.93;100.00
10840;BME280;5473;42.706;23.328;2023-02-18T06:06:15;10856.28;;;-142.93;100.00
10840;BME280;5473;42.706;23.328;2023-02-18T06:08:42;11108.97;;;-142.93;100.00
10840;BME280;5473;42.706;23.328;2023-02-18T06:11:09;11614.38;;;-142.93;100.00
10840;BME280;5473;42.706;23.328;2023-02-18T06:13:37;13131.09;;;-142.93;100.00
10840;BME280;5473;42.706;23.328;2023-02-18T06:16:04;14395.53;;;-142.93;100.00
10840;BME280;5473;42.706;23.328;2023-02-18T06:18:31;14901.44;;;-142.93;100.00
10840;BME280;5473;42.706;23.328;2023-02-18T06:20:58;15913.50;;;-142.93;100.00
10840;BME280;5473;42.706;23.328;2023-02-18T06:23:24;15913.50;;;-142.93;100.00
10840;BME280;5473;42.706;23.328;2023-02-18T06:25:51;19711.50;;;-142.93;100.00
10840;BME280;5473;42.706;23.328;2023-02-18T06:28:18;21992.38;;;-142.93;100.00
10840;BME280;5473;42.706;23.328;2023-02-18T06:30:46;21992.38;;;-142.93;100.00
10840;BME280;5473;42.706;23.328;2023-02-18T06:33:13;24274.81;;;-142.93;100.00
10840;BME280;5473;42.706;23.328;2023-02-18T06:35:40;23260.19;;;-142.93;100.00
10840;BME280;5473;42.706;23.328;2023-02-18T06:38:07;25035.97;;;-142.93;100.00
10840;BME280;5473;42.706;23.328;2023-02-18T06:40:34;29322.75;;;-142.93;100.00
10840;BME280;5473;42.706;23.328;2023-02-18T06:43:01;29691.97;;;-142.93;100.00
10840;BME280;5473;42.706;23.328;2023-02-18T06:45:27;30801.88;;;-142.93;100.00
10840;BME280;5473;42.706;23.328;2023-02-18T06:47:55;34551.28;;;-142.93;100.00
10840;BME280;5473;42.706;23.328;2023-02-18T06:50:22;34428.03;;;-142.93;100.00
10840;BME280;5473;42.706;23.328;2023-02-18T06:52:49;34334.59;;;-142.93;100.00
10840;BME280;5473;42.706;23.328;2023-02-18T06:55:16;34978.75;;;-142.93;100.00
10840;BME280;5473;42.706;23.328;2023-02-18T06:57:42;35054.31;;;-142.93;100.00
10840;BME280;5473;42.706;23.328;2023-02-18T07:00:10;34946.94;;;-142.93;100.00
10840;BME280;5473;42.706;23.328;2023-02-18T07:02:36;34748.13;;;-142.93;100.00
10840;BME280;5473;42.706;23.328;2023-02-18T07:05:05;35640.94;;;-142.93;100.00
10840;BME280;5473;42.706;23.328;2023-02-18T07:07:32;35857.72;;;-142.93;100.00
10840;BME280;5473;42.706;23.328;2023-02-18T07:09:59;36738.91;;;-142.93;100.00
10840;BME280;5473;42.706;23.328;2023-02-18T07:12:26;37544.69;;;-142.93;100.00
10840;BME280;5473;42.706;23.328;2023-02-18T07:14:53;37865.06;;;-142.93;100.00
10840;BME280;5473;42.706;23.328;2023-02-18T07:17:19;38018.31;;;-142.93;100.00
10840;BME280;5473;42.706;23.328;2023-02-18T07:19:46;38115.84;;;-142.93;100.00
10840;BME280;5473;42.706;23.328;2023-02-18T07:22:14;38137.72;;;-142.93;100.00
10840;BME280;5473;42.706;23.328;2023-02-18T07:24:41;38171.56;;;-142.93;100.00
10840;BME280;5473;42.706;23.328;2023-02-18T07:27:08;38177.53;;;-142.93;100.00
10840;BME280;5473;42.706;23.328;2023-02-18T07:29:35;38123.78;;;-142.93;100.00
10840;BME280;5473;42.706;23.328;2023-02-18T07:32:02;38115.84;;;-142.93;100.00
10840;BME280;5473;42.706;23.328;2023-02-18T07:34:29;38135.72;;;-142.93;100.00
10840;BME280;5473;42.706;23.328;2023-02-18T07:36:55;38115.84;;;-142.93;100.00
10840;BME280;5473;42.706;23.328;2023-02-18T07:39:24;38129.75;;;-142.93;100.00
10840;BME280;5473;42.706;23.328;2023-02-18T07:41:50;38129.75;;;-142.93;100.00
10840;BME280;5473;42.706;23.328;2023-02-18T07:44:17;38099.91;;;-142.93;100.00
10840;BME280;5473;42.706;23.328;2023-02-18T07:46:44;38062.09;;;-142.93;100.00
10840;BME280;5473;42.706;23.328;2023-02-18T07:49:10;37972.53;;;-142.93;100.00
10840;BME280;5473;42.706;23.328;2023-02-18T07:51:37;37972.53;;;-142.93;100.00
10840;BME280;5473;42.706;23.328;2023-02-18T07:54:04;37950.66;;;-142.93;100.00
10840;BME280;5473;42.706;23.328;2023-02-18T07:56:33;37926.78;;;-142.93;100.00
10840;BME280;5473;42.706;23.328;2023-02-18T07:58:59;37835.22;;;-142.93;100.00
10840;BME280;5473;42.706;23.328;2023-02-18T08:01:26;37839.22;;;-142.93;100.00
10840;BME280;5473;42.706;23.328;2023-02-18T08:03:53;37777.50;;;-142.93;100.00
10840;BME280;5473;42.706;23.328;2023-02-18T08:06:23;37719.81;;;-142.93;98.76
10840;BME280;5473;42.706;23.328;2023-02-18T08:08:51;37638.22;;;-142.93;90.23
10840;BME280;5473;42.706;23.328;2023-02-18T08:11:17;37703.88;;;-142.93;83.86
10840;BME280;5473;42.706;23.328;2023-02-18T08:13:46;37684.00;;;-142.93;79.10
10840;BME280;5473;42.706;23.328;2023-02-18T08:16:12;37745.69;;;-142.93;83.01
10840;BME280;5473;42.706;23.328;2023-02-18T08:18:39;37731.75;;;-142.93;81.90
10840;BME280;5473;42.706;23.328;2023-02-18T08:21:06;37695.94;;;-142.93;77.61
10840;BME280;5473;42.706;23.328;2023-02-18T08:23:33;37725.78;;;-142.93;72.00
10840;BME280;5473;42.706;23.328;2023-02-18T08:26:00;37705.88;;;-142.93;75.12
10840;BME280;5473;42.706;23.328;2023-02-18T08:28:26;37779.50;;;-142.93;75.00
10840;BME280;5473;42.706;23.328;2023-02-18T08:30:54;37759.59;;;-142.93;75.46
10840;BME280;5473;42.706;23.328;2023-02-18T08:33:22;37777.50;;;-142.93;75.98
10840;BME280;5473;42.706;23.328;2023-02-18T08:35:51;37791.44;;;-142.93;75.72
10840;BME280;5473;42.706;23.328;2023-02-18T08:38:18;37793.44;;;-142.93;78.86
10840;BME280;5473;42.706;23.328;2023-02-18T08:40:45;37821.28;;;-142.93;79.86
10840;BME280;5473;42.706;23.328;2023-02-18T08:43:13;37823.28;;;-142.93;80.75
10840;BME280;5473;42.706;23.328;2023-02-18T08:45:40;37801.41;;;-142.93;81.18
10840;BME280;5473;42.706;23.328;2023-02-18T08:48:09;37807.38;;;-142.93;80.88
10840;BME280;5473;42.706;23.328;2023-02-18T08:50:36;37843.19;;;-142.93;81.00
10840;BME280;5473;42.706;23.328;2023-02-18T08:53:04;37811.34;;;-142.93;81.66
10840;BME280;5473;42.706;23.328;2023-02-18T08:55:31;37775.53;;;-142.93;81.08
10840;BME280;5473;42.706;23.328;2023-02-18T08:57:58;37803.38;;;-142.93;79.56
10840;BME280;5473;42.706;23.328;2023-02-18T09:00:26;37771.53;;;-142.93;78.00
10840;BME280;5473;42.706;23.328;2023-02-18T09:02:53;37821.28;;;-142.93;73.76
10840;BME280;5473;42.706;23.328;2023-02-18T09:05:21;37823.28;;;-142.93;72.19
10840;BME280;5473;42.706;23.328;2023-02-18T09:07:47;37819.31;;;-142.93;73.95
10840;BME280;5473;42.706;23.328;2023-02-18T09:10:14;37815.31;;;-142.93;74.29
10840;BME280;5473;42.706;23.328;2023-02-18T09:12:41;37843.19;;;-142.93;73.20
10840;BME280;5473;42.706;23.328;2023-02-18T09:15:08;37827.25;;;-142.93;73.93
10840;BME280;5473;42.706;23.328;2023-02-18T09:17:35;37819.31;;;-142.93;73.61
10840;BME280;5473;42.706;23.328;2023-02-18T09:20:02;37817.31;;;-142.93;72.87
10840;BME280;5473;42.706;23.328;2023-02-18T09:22:30;37847.16;;;-142.93;71.57
10840;BME280;5473;42.706;23.328;2023-02-18T09:24:57;37781.50;;;-142.93;71.12
10840;BME280;5473;42.706;23.328;2023-02-18T09:27:24;37721.78;;;-142.93;67.82
10840;BME280;5473;42.706;23.328;2023-02-18T09:29:51;37622.31;;;-142.93;63.87
10840;BME280;5473;42.706;23.328;2023-02-18T09:32:17;37620.31;;;-142.93;58.71
10840;BME280;5473;42.706;23.328;2023-02-18T09:34:44;37496.94;;;-142.93;53.95
10840;BME280;5473;42.706;23.328;2023-02-18T09:37:11;37447.19;;;-142.93;51.93
10840;BME280;5473;42.706;23.328;2023-02-18T09:39:41;37465.09;;;-142.93;50.53
10840;BME280;5473;42.706;23.328;2023-02-18T09:42:12;37349.69;;;-142.93;47.19
10840;BME280;5473;42.706;23.328;2023-02-18T09:44:42;37303.94;;;-142.93;45.11
10840;BME280;5473;42.706;23.328;2023-02-18T09:47:14;37393.47;;;-142.93;44.49
10840;BME280;5473;42.706;23.328;2023-02-18T09:49:47;37377.56;;;-142.93;44.81
10840;BME280;5473;42.706;23.328;2023-02-18T09:52:18;37258.16;;;-142.93;42.81
10840;BME280;5473;42.706;23.328;2023-02-18T09:54:47;37335.75;;;-142.93;43.14
10840;BME280;5473;42.706;23.328;2023-02-18T09:57:20;37413.38;;;-142.93;43.05
10840;BME280;5473;42.706;23.328;2023-02-18T09:59:55;37556.63;;;-142.93;46.14
10840;BME280;5473;42.706;23.328;2023-02-18T10:02:23;37600.41;;;-142.93;47.03
10840;BME280;5473;42.706;23.328;2023-02-18T10:04:50;37596.44;;;-142.93;47.73
10840;BME280;5473;42.706;23.328;2023-02-18T10:07:22;37582.50;;;-142.93;44.29
10840;BME280;5473;42.706;23.328;2023-02-18T10:09:53;37467.09;;;-142.93;43.32
10840;BME280;5473;42.706;23.328;2023-02-18T10:12:22;37335.75;;;-142.93;39.38
10840;BME280;5473;42.706;23.328;2023-02-18T10:14:51;37331.78;;;-142.93;37.88
10840;BME280;5473;42.706;23.328;2023-02-18T10:17:20;37483.00;;;-142.93;40.08
10840;BME280;5473;42.706;23.328;2023-02-18T10:19:48;37421.31;;;-142.93;39.94
10840;BME280;5473;42.706;23.328;2023-02-18T10:22:17;37469.09;;;-142.93;39.84
10840;BME280;5473;42.706;23.328;2023-02-18T10:24:47;37483.00;;;-142.93;40.09
10840;BME280;5473;42.706;23.328;2023-02-18T10:27:22;37329.78;;;-142.93;38.31
10840;BME280;5473;42.706;23.328;2023-02-18T10:29:49;37297.97;;;-142.93;36.96
10840;BME280;5473;42.706;23.328;2023-02-18T10:32:20;37411.38;;;-142.93;36.62
10840;BME280;5473;42.706;23.328;2023-02-18T10:34:52;37359.66;;;-142.93;36.11
10840;BME280;5473;42.706;23.328;2023-02-18T10:37:36;37401.44;;;-142.93;34.43
10840;BME280;5473;42.706;23.328;2023-02-18T10:40:11;37407.41;;;-142.93;35.55
10840;BME280;5473;42.706;23.328;2023-02-18T10:42:50;37369.59;;;-142.93;34.75
10840;BME280;5473;42.706;23.328;2023-02-18T10:45:28;37447.19;;;-142.93;35.13
10840;BME280;5473;42.706;23.328;2023-02-18T10:48:10;37485.00;;;-142.93;35.78
10840;BME280;5473;42.706;23.328;2023-02-18T10:50:45;37381.53;;;-142.93;35.52
10840;BME280;5473;42.706;23.328;2023-02-18T10:53:17;37180.56;;;-142.93;33.48
10840;BME280;5473;42.706;23.328;2023-02-18T10:55:46;37262.16;;;-142.93;32.85
10840;BME280;5473;42.706;23.328;2023-02-18T10:58:27;37429.28;;;-142.93;34.85
10840;BME280;5473;42.706;23.328;2023-02-18T11:00:55;37608.38;;;-142.93;36.51
10840;BME280;5473;42.706;23.328;2023-02-18T11:03:24;37674.03;;;-142.93;38.00
10840;BME280;5473;42.706;23.328;2023-02-18T11:05:54;37783.50;;;-142.93;39.15
10840;BME280;5473;42.706;23.328;2023-02-18T11:08:24;37761.59;;;-142.93;40.17
10840;BME280;5473;42.706;23.328;2023-02-18T11:10:53;37725.78;;;-142.93;40.15
10840;BME280;5473;42.706;23.328;2023-02-18T11:13:25;37664.09;;;-142.93;38.45
10840;BME280;5473;42.706;23.328;2023-02-18T11:15:56;37735.72;;;-142.93;39.67
10840;BME280;5473;42.706;23.328;2023-02-18T11:18:31;37795.44;;;-142.93;42.59
10840;BME280;5473;42.706;23.328;2023-02-18T11:21:01;37807.38;;;-142.93;43.17
10840;BME280;5473;42.706;23.328;2023-02-18T11:23:28;37857.13;;;-142.93;43.53
10840;BME280;5473;42.706;23.328;2023-02-18T11:25:58;37795.44;;;-142.93;42.84
10840;BME280;5473;42.706;23.328;2023-02-18T11:28:41;37767.56;;;-142.93;42.70
10840;BME280;5473;42.706;23.328;2023-02-18T11:31:14;37809.34;;;-142.93;43.54
10840;BME280;5473;42.706;23.328;2023-02-18T11:33:44;37775.53;;;-142.93;43.74
10840;BME280;5473;42.706;23.328;2023-02-18T11:36:18;37773.53;;;-142.93;43.61
10840;BME280;5473;42.706;23.328;2023-02-18T11:38:50;37701.91;;;-142.93;41.96
10840;BME280;5473;42.706;23.328;2023-02-18T11:41:20;37578.53;;;-142.93;40.23
10840;BME280;5473;42.706;23.328;2023-02-18T11:43:51;37618.31;;;-142.93;40.25
10840;BME280;5473;42.706;23.328;2023-02-18T11:46:20;37650.16;;;-142.93;40.61
10840;BME280;5473;42.706;23.328;2023-02-18T11:48:47;37630.25;;;-142.93;40.28
10840;BME280;5473;42.706;23.328;2023-02-18T11:51:16;37626.28;;;-142.93;40.31
10840;BME280;5473;42.706;23.328;2023-02-18T11:54:02;37584.50;;;-142.93;40.54
10840;BME280;5473;42.706;23.328;2023-02-18T11:56:31;37624.28;;;-142.93;40.81
10840;BME280;5473;42.706;23.328;2023-02-18T11:59:00;37606.38;;;-142.93;40.54
10840;BME280;5473;42.706;23.328;2023-02-18T12:01:35;37530.75;;;-142.93;40.36
10840;BME280;5473;42.706;23.328;2023-02-18T12:04:09;37508.88;;;-142.93;40.47
10840;BME280;5473;42.706;23.328;2023-02-18T12:06:40;37512.84;;;-142.93;40.64
10840;BME280;5473;42.706;23.328;2023-02-18T12:09:19;37481.03;;;-142.93;41.23
10840;BME280;5473;42.706;23.328;2023-02-18T12:11:50;37504.91;;;-142.93;40.08
10840;BME280;5473;42.706;23.328;2023-02-18T12:14:20;37534.75;;;-142.93;41.42
10840;BME280;5473;42.706;23.328;2023-02-18T12:17:06;37522.81;;;-142.93;41.70
10840;BME280;5473;42.706;23.328;2023-02-18T12:19:53;37512.84;;;-142.93;42.37
10840;BME280;5473;42.706;23.328;2023-02-18T12:22:33;37620.31;;;-142.93;44.63
10840;BME280;5473;42.706;23.328;2023-02-18T12:25:19;37697.91;;;-142.93;47.69
10840;BME280;5473;42.706;23.328;2023-02-18T12:27:55;37731.75;;;-142.93;50.17
10840;BME280;5473;42.706;23.328;2023-02-18T12:30:42;37715.81;;;-142.93;50.05
10840;BME280;5473;42.706;23.328;2023-02-18T12:33:19;37703.88;;;-142.93;49.74
10840;BME280;5473;42.706;23.328;2023-02-18T12:35:53;37680.00;;;-142.93;48.84
10840;BME280;5473;42.706;23.328;2023-02-18T12:41:33;37648.16;;;-142.93;49.31
10840;BME280;5473;42.706;23.328;2023-02-18T12:44:13;37691.94;;;-142.93;49.04
10840;BME280;5473;42.706;23.328;2023-02-18T12:46:56;37680.00;;;-142.93;50.09
10840;BME280;5473;42.706;23.328;2023-02-18T12:49:41;37707.88;;;-142.93;50.12
10840;BME280;5473;42.706;23.328;2023-02-18T12:52:23;37638.22;;;-142.93;49.20
10840;BME280;5473;42.706;23.328;2023-02-18T12:58:04;37620.31;;;-142.93;46.80